Time;durP1;ratioP1;P1;durP2;ratioP2;P2;SDS_P1;SDS_P2;PMS_P1;PMS_P2;Temp;Humidity;BMP_temperature;BMP_pressure;BME280_temperature;BME280_humidity;BME280_pressure;Samples;Min_cycle;Max_cycle;Signal;HPM_P1;HPM_P2
2021/06/14 00:02:09;;;;;;;5.33;2.53;;;13.70;99.90;;;;;;5087634;28;20628;-89
2021/06/14 00:04:36;;;;;;;5.50;2.43;;;13.60;99.90;;;;;;5088253;28;20625;-90
2021/06/14 00:07:04;;;;;;;3.30;2.70;;;13.60;99.90;;;;;;5083699;28;20656;-91
2021/06/14 00:09:31;;;;;;;3.20;2.80;;;13.70;99.90;;;;;;5087990;28;20645;-91
2021/06/14 00:11:58;;;;;;;4.07;3.10;;;13.60;99.90;;;;;;5087860;28;20618;-91
2021/06/14 00:14:26;;;;;;;5.27;3.10;;;13.50;99.90;;;;;;5084896;28;20624;-90
2021/06/14 00:16:52;;;;;;;3.97;3.40;;;13.40;99.90;;;;;;5073506;28;20701;-91
2021/06/14 00:19:19;;;;;;;7.33;2.87;;;13.50;99.90;;;;;;5071241;28;20672;-90
2021/06/14 00:21:46;;;;;;;5.10;3.20;;;13.50;99.90;;;;;;5065196;28;21517;-90
2021/06/14 00:24:15;;;;;;;5.83;2.87;;;13.60;99.90;;;;;;5070302;28;20792;-90
2021/06/14 00:26:42;;;;;;;4.50;2.83;;;13.60;99.90;;;;;;5069712;28;20656;-90
2021/06/14 00:29:10;;;;;;;3.17;2.67;;;13.60;99.90;;;;;;5070341;28;20983;-90
2021/06/14 00:31:37;;;;;;;2.80;2.60;;;13.50;99.90;;;;;;5078886;28;20625;-90
2021/06/14 00:34:04;;;;;;;2.77;2.57;;;13.50;99.90;;;;;;5080231;28;20620;-92
2021/06/14 00:36:31;;;;;;;2.90;2.60;;;13.50;99.90;;;;;;5087007;28;20639;-91
2021/06/14 00:38:57;;;;;;;4.63;2.90;;;13.50;99.90;;;;;;5083626;28;20711;-91
2021/06/14 00:41:26;;;;;;;3.30;2.90;;;13.40;99.90;;;;;;5086280;28;20716;-93
2021/06/14 00:43:53;;;;;;;3.60;3.10;;;13.40;99.90;;;;;;5084661;28;20609;-93
2021/06/14 00:46:20;;;;;;;2.90;2.57;;;13.40;99.90;;;;;;5068190;28;20680;-92
2021/06/14 00:48:46;;;;;;;3.50;3.00;;;13.40;99.90;;;;;;5076371;28;20640;-92
2021/06/14 00:51:14;;;;;;;3.43;2.77;;;13.40;99.90;;;;;;5061506;28;20665;-91
2021/06/14 00:53:42;;;;;;;3.47;2.87;;;13.40;99.90;;;;;;5063502;28;21159;-91
2021/06/14 00:56:11;;;;;;;3.63;3.33;;;13.30;99.90;;;;;;5064153;28;20632;-91
2021/06/14 00:58:41;;;;;;;4.23;3.13;;;13.40;99.90;;;;;;5061455;28;20962;-91
2021/06/14 01:01:09;;;;;;;3.40;3.10;;;13.30;99.90;;;;;;5061981;28;20668;-90
2021/06/14 01:03:36;;;;;;;3.30;3.03;;;13.20;99.90;;;;;;5064444;28;20629;-91
2021/06/14 01:06:05;;;;;;;3.50;3.20;;;13.20;99.90;;;;;;5062674;28;20633;-92
2021/06/14 01:08:34;;;;;;;6.00;3.97;;;13.20;99.90;;;;;;5063301;28;20673;-92
2021/06/14 01:11:13;;;;;;;3.83;3.53;;;13.10;99.90;;;;;;5061958;28;21596;-92
2021/06/14 01:13:50;;;;;;;3.33;3.03;;;13.10;99.90;;;;;;5061371;28;21208;-91
2021/06/14 01:16:21;;;;;;;4.10;3.80;;;13.10;99.90;;;;;;5061709;28;20668;-92
2021/06/14 01:18:54;;;;;;;4.30;3.50;;;13.00;99.90;;;;;;5058974;28;20626;-93
2021/06/14 01:21:27;;;;;;;3.97;3.47;;;13.00;99.90;;;;;;5063333;28;20668;-93
2021/06/14 01:24:22;;;;;;;4.00;3.70;;;12.80;99.90;;;;;;5045058;28;21168;-90
2021/06/14 01:27:00;;;;;;;5.93;3.13;;;12.80;99.90;;;;;;5058369;28;20998;-91
2021/06/14 01:29:30;;;;;;;3.70;3.40;;;12.70;99.90;;;;;;5057466;28;20671;-91
2021/06/14 01:31:58;;;;;;;3.90;3.37;;;12.70;99.90;;;;;;5060400;28;20617;-90
2021/06/14 01:34:28;;;;;;;6.97;3.53;;;12.70;99.90;;;;;;5062190;28;20640;-92
2021/06/14 01:36:57;;;;;;;4.10;3.70;;;12.60;99.90;;;;;;5059583;28;20693;-92
2021/06/14 01:39:25;;;;;;;6.00;3.27;;;12.50;99.90;;;;;;5041435;28;21015;-92
2021/06/14 01:41:53;;;;;;;3.43;3.13;;;12.50;99.90;;;;;;5062110;28;20633;-92
2021/06/14 01:44:22;;;;;;;3.70;3.40;;;12.40;99.90;;;;;;5062715;28;20639;-91
2021/06/14 01:46:52;;;;;;;3.50;3.30;;;12.40;99.90;;;;;;5061685;28;21313;-92
2021/06/14 01:49:21;;;;;;;5.50;3.80;;;12.50;99.90;;;;;;5057003;28;21184;-93
2021/06/14 01:51:48;;;;;;;8.20;3.73;;;12.50;99.90;;;;;;5056855;28;20623;-93
2021/06/14 01:54:15;;;;;;;4.50;4.07;;;12.50;99.90;;;;;;5063275;28;20982;-90
2021/06/14 01:56:45;;;;;;;4.03;3.50;;;12.40;99.90;;;;;;5064371;28;20637;-92
2021/06/14 01:59:16;;;;;;;4.60;4.13;;;12.40;99.90;;;;;;5058843;28;21187;-91
2021/06/14 02:01:45;;;;;;;7.30;4.80;;;12.40;99.90;;;;;;5061004;28;21051;-91
2021/06/14 02:04:14;;;;;;;3.90;3.60;;;12.40;99.90;;;;;;5063923;28;20636;-93
2021/06/14 02:06:45;;;;;;;4.73;3.97;;;12.20;99.90;;;;;;5063282;28;20951;-92
2021/06/14 02:09:15;;;;;;;3.30;3.00;;;12.30;99.90;;;;;;5064813;28;20990;-91
2021/06/14 02:11:44;;;;;;;4.17;3.70;;;12.30;99.90;;;;;;5064750;28;20723;-92
2021/06/14 02:14:13;;;;;;;4.70;3.23;;;12.30;99.90;;;;;;5064970;28;20613;-91
2021/06/14 02:16:42;;;;;;;3.90;3.47;;;12.30;99.90;;;;;;5066637;28;20986;-92
2021/06/14 02:19:09;;;;;;;3.93;3.33;;;12.20;99.90;;;;;;5068961;28;20664;-92
2021/06/14 02:21:37;;;;;;;4.30;3.30;;;12.20;99.90;;;;;;5070047;28;20723;-92
2021/06/14 02:24:04;;;;;;;3.73;3.33;;;12.20;99.90;;;;;;5066569;28;20664;-92
2021/06/14 02:26:31;;;;;;;3.80;3.40;;;12.20;99.90;;;;;;5065573;28;20617;-92
2021/06/14 02:28:58;;;;;;;6.30;3.80;;;12.20;99.90;;;;;;5062737;28;20661;-92
2021/06/14 02:31:26;;;;;;;6.37;3.77;;;12.20;99.90;;;;;;5062962;28;20637;-92
2021/06/14 02:33:53;;;;;;;5.53;3.50;;;12.20;99.90;;;;;;5065744;28;20625;-92
2021/06/14 02:36:21;;;;;;;6.30;3.90;;;12.00;99.90;;;;;;5066286;28;20633;-92
2021/06/14 02:38:49;;;;;;;4.10;3.80;;;12.00;99.90;;;;;;5063258;28;20991;-92
2021/06/14 02:41:17;;;;;;;8.07;4.63;;;12.10;99.90;;;;;;5064910;28;21065;-92
2021/06/14 02:43:45;;;;;;;5.03;4.03;;;12.00;99.90;;;;;;5060706;28;20644;-92
2021/06/14 02:46:13;;;;;;;3.87;3.40;;;12.10;99.90;;;;;;5061141;28;20637;-93
2021/06/14 02:48:42;;;;;;;4.70;3.50;;;12.00;99.90;;;;;;5065213;28;20763;-91
2021/06/14 02:51:09;;;;;;;4.40;4.00;;;11.90;99.90;;;;;;5063967;28;20994;-90
2021/06/14 02:53:37;;;;;;;4.07;3.67;;;11.90;99.90;;;;;;5064393;28;20648;-90
2021/06/14 02:56:08;;;;;;;5.13;4.10;;;11.90;99.90;;;;;;5064192;28;20629;-90
2021/06/14 02:58:39;;;;;;;6.37;4.53;;;11.90;99.90;;;;;;5063895;28;20612;-91
2021/06/14 03:01:07;;;;;;;4.63;4.07;;;12.00;99.90;;;;;;5064615;28;20637;-91
2021/06/14 03:03:36;;;;;;;3.77;3.47;;;11.90;99.90;;;;;;5062205;28;20653;-91
2021/06/14 03:06:03;;;;;;;4.10;3.40;;;11.90;99.90;;;;;;5065189;28;20632;-91
2021/06/14 03:08:32;;;;;;;4.13;3.73;;;11.90;99.90;;;;;;5064437;28;20696;-91
2021/06/14 03:11:01;;;;;;;4.20;3.80;;;11.90;99.90;;;;;;5069252;28;20614;-91
2021/06/14 03:13:29;;;;;;;4.57;4.10;;;11.90;99.90;;;;;;5066241;28;21076;-93
2021/06/14 03:15:57;;;;;;;6.23;3.87;;;11.80;99.90;;;;;;5062638;28;20719;-93
2021/06/14 03:18:26;;;;;;;4.10;3.70;;;11.90;99.90;;;;;;5062743;28;21399;-88
2021/06/14 03:20:55;;;;;;;4.37;3.73;;;11.80;99.90;;;;;;5063041;28;20732;-88
2021/06/14 03:23:22;;;;;;;4.40;3.40;;;11.80;99.90;;;;;;5063663;28;21239;-88
2021/06/14 03:25:51;;;;;;;5.17;3.80;;;11.70;99.90;;;;;;5042325;28;20633;-88
2021/06/14 03:28:21;;;;;;;6.20;5.50;;;11.70;99.90;;;;;;5057487;28;21250;-89
2021/06/14 03:30:50;;;;;;;4.40;4.00;;;11.80;99.90;;;;;;5062142;28;21051;-88
2021/06/14 03:33:18;;;;;;;4.97;3.37;;;11.70;99.90;;;;;;5061338;28;20658;-88
2021/06/14 03:35:47;;;;;;;4.13;3.73;;;11.60;99.90;;;;;;5062066;28;20633;-87
2021/06/14 03:38:14;;;;;;;5.00;3.90;;;11.60;99.90;;;;;;5058879;28;20613;-88
2021/06/14 03:40:41;;;;;;;7.87;4.07;;;11.60;99.90;;;;;;5062786;28;20996;-88
2021/06/14 03:43:08;;;;;;;5.30;4.30;;;11.60;99.90;;;;;;5060702;28;20696;-88
2021/06/14 03:45:36;;;;;;;4.40;4.00;;;11.60;99.90;;;;;;5061481;28;20629;-87
2021/06/14 03:48:05;;;;;;;4.07;3.77;;;11.50;99.90;;;;;;5062002;28;22214;-88
2021/06/14 03:50:32;;;;;;;5.57;4.30;;;11.60;99.90;;;;;;5061250;28;20629;-89
2021/06/14 03:53:02;;;;;;;5.23;4.37;;;11.60;99.90;;;;;;5066567;28;21064;-89
2021/06/14 03:55:30;;;;;;;6.63;4.50;;;11.60;99.90;;;;;;5077067;28;20642;-88
2021/06/14 03:57:56;;;;;;;5.30;4.40;;;11.70;99.90;;;;;;5065976;28;20628;-87
2021/06/14 04:00:24;;;;;;;5.27;4.70;;;11.70;99.90;;;;;;5068991;28;20605;-90
2021/06/14 04:02:50;;;;;;;4.37;3.97;;;11.50;99.90;;;;;;5069727;28;21292;-89
2021/06/14 04:05:19;;;;;;;5.63;4.93;;;11.50;99.90;;;;;;5061714;28;20981;-89
2021/06/14 04:07:46;;;;;;;7.07;5.27;;;11.70;99.90;;;;;;5044819;28;20633;-89
2021/06/14 04:10:13;;;;;;;5.60;5.10;;;11.70;99.90;;;;;;5062909;28;20586;-89
2021/06/14 04:12:41;;;;;;;5.17;4.67;;;11.70;99.90;;;;;;5065573;28;20740;-88
2021/06/14 04:15:09;;;;;;;5.23;4.80;;;11.70;99.90;;;;;;5063824;28;20633;-88
2021/06/14 04:17:35;;;;;;;7.13;5.10;;;11.70;99.90;;;;;;5047731;28;20656;-89
2021/06/14 04:20:05;;;;;;;5.30;4.57;;;11.80;99.90;;;;;;5064840;28;20644;-89
2021/06/14 04:22:34;;;;;;;4.93;4.53;;;11.80;99.90;;;;;;5047087;28;20653;-89
2021/06/14 04:25:02;;;;;;;5.13;4.53;;;11.80;99.90;;;;;;5065049;28;20609;-88
2021/06/14 04:27:29;;;;;;;6.10;5.03;;;11.90;99.90;;;;;;5065723;28;21202;-89
2021/06/14 04:29:56;;;;;;;6.50;5.10;;;11.90;99.90;;;;;;5064152;28;20643;-88
2021/06/14 04:32:24;;;;;;;7.40;4.87;;;11.90;99.90;;;;;;5063260;28;20978;-89
2021/06/14 04:34:54;;;;;;;7.77;5.40;;;12.10;99.90;;;;;;5066266;28;21226;-88
2021/06/14 04:37:21;;;;;;;6.90;5.07;;;12.00;99.90;;;;;;5066356;28;21144;-88
2021/06/14 04:39:49;;;;;;;6.20;5.03;;;12.10;99.90;;;;;;5065390;28;20686;-89
2021/06/14 04:42:16;;;;;;;8.40;5.60;;;12.10;99.90;;;;;;5064248;28;21214;-88
2021/06/14 04:44:47;;;;;;;8.57;5.27;;;12.20;99.90;;;;;;5064675;28;20613;-88
2021/06/14 04:47:14;;;;;;;9.33;5.30;;;12.30;99.90;;;;;;5062644;28;21156;-89
2021/06/14 04:49:41;;;;;;;8.43;5.00;;;12.30;99.90;;;;;;5063980;28;20650;-88
2021/06/14 04:52:08;;;;;;;12.27;5.63;;;12.40;99.90;;;;;;5045630;28;20633;-89
2021/06/14 04:54:35;;;;;;;33.83;9.47;;;12.50;99.90;;;;;;5063699;28;20613;-89
2021/06/14 04:57:07;;;;;;;21.70;8.30;;;12.60;99.90;;;;;;5062654;28;20629;-89
2021/06/14 04:59:43;;;;;;;22.53;9.03;;;12.80;99.90;;;;;;5064205;28;20616;-90
2021/06/14 05:02:10;;;;;;;9.23;6.77;;;13.00;99.90;;;;;;5060184;28;20636;-89
2021/06/14 05:04:36;;;;;;;8.93;6.30;;;13.20;99.90;;;;;;5061130;28;20617;-90
2021/06/14 05:07:03;;;;;;;5.93;4.90;;;13.20;99.90;;;;;;5061493;28;20639;-90
2021/06/14 05:09:30;;;;;;;8.97;5.57;;;13.40;99.90;;;;;;5064099;28;21211;-91
2021/06/14 05:11:57;;;;;;;8.00;5.20;;;13.50;99.90;;;;;;5065317;28;20632;-92
2021/06/14 05:14:29;;;;;;;7.07;5.70;;;13.60;99.90;;;;;;5069923;28;20633;-94
2021/06/14 05:16:56;;;;;;;7.80;6.20;;;13.70;99.90;;;;;;5068106;28;21236;-94
2021/06/14 05:19:24;;;;;;;8.33;5.33;;;13.80;99.90;;;;;;5068393;28;20625;-94
2021/06/14 05:21:51;;;;;;;9.63;5.43;;;14.00;99.90;;;;;;5066304;28;20643;-92
2021/06/14 05:24:20;;;;;;;7.80;5.17;;;14.20;99.90;;;;;;5067593;28;20755;-94
2021/06/14 05:26:47;;;;;;;9.20;5.93;;;14.30;99.90;;;;;;5069870;28;20630;-93
2021/06/14 05:29:18;;;;;;;6.27;5.70;;;14.40;99.90;;;;;;5062509;28;20662;-93
2021/06/14 05:31:47;;;;;;;6.17;5.57;;;14.50;99.90;;;;;;5064204;28;20753;-92
2021/06/14 05:34:34;;;;;;;7.70;5.57;;;14.50;99.90;;;;;;5070889;28;20752;-96
2021/06/14 05:37:02;;;;;;;8.23;5.70;;;14.50;99.90;;;;;;5075039;28;20678;-96
2021/06/14 05:39:36;;;;;;;6.73;5.20;;;14.60;99.90;;;;;;5066926;28;20735;-96
2021/06/14 05:42:12;;;;;;;5.20;4.70;;;14.70;99.90;;;;;;5070489;28;20652;-95
2021/06/14 05:44:39;;;;;;;8.00;5.10;;;14.80;99.90;;;;;;5068759;28;20723;-91
2021/06/14 05:47:07;;;;;;;8.77;5.57;;;14.90;99.90;;;;;;5065488;28;20605;-91
2021/06/14 05:49:34;;;;;;;4.73;4.23;;;15.00;99.90;;;;;;5064274;28;20672;-92
2021/06/14 05:52:01;;;;;;;7.03;5.50;;;15.20;99.90;;;;;;5064143;28;20628;-91
2021/06/14 05:54:28;;;;;;;6.10;4.73;;;15.30;99.90;;;;;;5064024;28;20629;-90
2021/06/14 05:56:55;;;;;;;5.60;3.97;;;15.40;99.90;;;;;;5061429;28;20982;-91
2021/06/14 05:59:22;;;;;;;4.17;3.73;;;15.60;99.90;;;;;;5062490;28;20632;-91
2021/06/14 06:01:48;;;;;;;6.57;4.20;;;15.80;99.90;;;;;;5064983;28;20675;-91
2021/06/14 06:04:17;;;;;;;5.13;3.20;;;16.00;99.90;;;;;;5062476;28;20645;-90
2021/06/14 06:06:44;;;;;;;5.40;3.77;;;16.10;99.90;;;;;;5063842;28;20686;-90
2021/06/14 06:09:11;;;;;;;4.20;3.60;;;16.30;99.90;;;;;;5066831;28;20695;-91
2021/06/14 06:11:38;;;;;;;6.00;3.57;;;16.40;99.90;;;;;;5065520;28;20867;-91
2021/06/14 06:14:05;;;;;;;5.60;3.87;;;16.60;99.90;;;;;;5062626;28;20660;-91
2021/06/14 06:16:33;;;;;;;4.63;2.87;;;16.70;99.90;;;;;;5062216;28;20644;-91
2021/06/14 06:19:01;;;;;;;5.47;3.37;;;16.80;99.90;;;;;;5064533;28;20613;-90
2021/06/14 06:21:30;;;;;;;6.83;3.77;;;16.90;99.90;;;;;;5065148;28;20615;-91
2021/06/14 06:23:56;;;;;;;4.30;3.70;;;17.10;99.90;;;;;;5063860;28;20636;-91
2021/06/14 06:26:24;;;;;;;7.13;3.20;;;17.10;99.90;;;;;;5063985;28;20639;-92
2021/06/14 06:28:51;;;;;;;4.93;3.37;;;17.30;99.90;;;;;;5065024;28;20678;-92
2021/06/14 06:31:19;;;;;;;6.20;3.63;;;17.40;99.90;;;;;;5061233;28;20728;-89
2021/06/14 06:33:45;;;;;;;6.90;3.53;;;17.60;99.90;;;;;;5060909;28;20667;-90
2021/06/14 06:36:13;;;;;;;4.97;3.20;;;17.80;99.90;;;;;;5062442;28;20625;-91
2021/06/14 06:38:41;;;;;;;3.57;3.07;;;17.90;99.90;;;;;;5061567;28;20626;-89
2021/06/14 06:41:09;;;;;;;4.80;2.60;;;18.00;99.90;;;;;;5065006;28;20843;-93
2021/06/14 06:43:36;;;;;;;4.50;3.13;;;18.10;99.90;;;;;;5066459;28;20680;-91
2021/06/14 06:46:04;;;;;;;6.33;3.13;;;18.20;99.90;;;;;;5060344;28;20630;-92
2021/06/14 06:48:31;;;;;;;5.23;2.37;;;18.20;99.50;;;;;;5063272;28;20793;-92
2021/06/14 06:50:58;;;;;;;2.90;2.63;;;18.30;99.30;;;;;;5043964;28;20644;-91
2021/06/14 06:53:26;;;;;;;5.80;2.57;;;18.30;99.60;;;;;;5070476;28;20684;-90
2021/06/14 06:55:54;;;;;;;3.20;2.90;;;18.40;99.30;;;;;;5065797;28;20635;-91
2021/06/14 06:58:21;;;;;;;2.97;2.20;;;18.50;98.80;;;;;;5069598;28;20653;-92
2021/06/14 07:00:48;;;;;;;7.30;3.07;;;18.60;98.70;;;;;;5065393;28;20744;-92
2021/06/14 07:03:17;;;;;;;5.53;2.63;;;18.70;98.30;;;;;;5067368;28;20982;-91
2021/06/14 07:05:44;;;;;;;4.00;2.50;;;18.80;99.20;;;;;;5061127;28;21069;-91
2021/06/14 07:08:11;;;;;;;4.97;2.90;;;18.80;98.60;;;;;;5065681;28;20628;-92
2021/06/14 07:10:38;;;;;;;7.30;3.33;;;18.80;98.40;;;;;;5063437;28;20687;-90
2021/06/14 07:13:07;;;;;;;5.87;2.60;;;18.90;99.10;;;;;;5063430;28;21044;-90
2021/06/14 07:15:34;;;;;;;6.37;2.93;;;19.00;97.70;;;;;;5061253;28;20645;-90
2021/06/14 07:18:01;;;;;;;5.27;2.50;;;19.10;98.50;;;;;;5065972;28;20747;-90
2021/06/14 07:20:29;;;;;;;4.40;2.97;;;19.20;97.20;;;;;;5062936;28;20621;-90
2021/06/14 07:22:56;;;;;;;3.07;2.30;;;19.30;97.20;;;;;;5061931;28;20643;-89
2021/06/14 07:25:24;;;;;;;4.40;2.93;;;19.30;97.00;;;;;;5066103;28;20659;-89
2021/06/14 07:27:51;;;;;;;4.10;3.10;;;19.30;96.90;;;;;;5065906;28;20864;-91
2021/06/14 07:30:22;;;;;;;4.70;2.90;;;19.40;97.40;;;;;;5063376;28;20664;-91
2021/06/14 07:32:49;;;;;;;5.53;3.07;;;19.50;96.90;;;;;;5065736;28;20623;-90
2021/06/14 07:35:17;;;;;;;4.33;2.50;;;19.70;96.80;;;;;;5065953;28;20655;-89
2021/06/14 07:37:44;;;;;;;4.53;3.37;;;19.70;96.60;;;;;;5066075;28;20643;-89
2021/06/14 07:40:11;;;;;;;4.50;2.83;;;19.80;96.50;;;;;;5064810;28;20652;-90
2021/06/14 07:42:39;;;;;;;4.60;3.10;;;19.60;95.60;;;;;;5061233;28;20614;-90
2021/06/14 07:45:07;;;;;;;2.93;2.70;;;19.90;96.80;;;;;;5060275;28;20647;-90
2021/06/14 07:47:35;;;;;;;3.27;2.50;;;20.00;96.30;;;;;;5062453;28;20620;-91
2021/06/14 07:50:02;;;;;;;4.40;3.23;;;20.00;95.90;;;;;;5061538;28;20649;-91
2021/06/14 07:52:29;;;;;;;4.90;2.50;;;20.20;96.30;;;;;;5064871;28;20980;-90
2021/06/14 07:54:56;;;;;;;2.57;2.17;;;20.20;95.40;;;;;;5066967;28;20668;-90
2021/06/14 07:57:23;;;;;;;3.53;3.20;;;20.30;95.00;;;;;;5067727;28;20620;-90
2021/06/14 07:59:49;;;;;;;7.07;3.00;;;20.30;95.50;;;;;;5068674;28;20645;-90
2021/06/14 08:02:16;;;;;;;7.20;3.23;;;20.40;95.30;;;;;;5065938;28;20637;-90
2021/06/14 08:04:44;;;;;;;3.00;2.70;;;20.40;94.40;;;;;;5064617;28;20648;-90
2021/06/14 08:07:11;;;;;;;2.83;2.53;;;20.50;95.60;;;;;;5060324;28;20625;-91
2021/06/14 08:09:38;;;;;;;5.90;2.90;;;20.50;95.90;;;;;;5064110;28;20661;-91
2021/06/14 08:12:06;;;;;;;4.23;2.70;;;20.70;95.20;;;;;;5060788;28;20679;-91
2021/06/14 08:14:33;;;;;;;6.27;2.90;;;20.80;94.10;;;;;;5062601;28;20664;-91
2021/06/14 08:17:02;;;;;;;6.50;2.50;;;20.80;94.20;;;;;;5057131;28;20634;-91
2021/06/14 08:19:35;;;;;;;3.57;2.60;;;21.00;94.30;;;;;;5062262;28;21446;-91
2021/06/14 08:22:21;;;;;;;2.87;2.60;;;21.10;94.30;;;;;;5059150;28;21175;-90
2021/06/14 08:25:05;;;;;;;2.87;1.90;;;21.20;93.90;;;;;;5030639;28;20671;-91
2021/06/14 08:27:34;;;;;;;6.30;2.23;;;21.30;92.80;;;;;;5064182;28;20770;-91
2021/06/14 08:30:01;;;;;;;3.43;2.30;;;21.50;93.60;;;;;;5059833;28;20664;-92
2021/06/14 08:32:28;;;;;;;6.67;2.67;;;21.60;93.20;;;;;;5064929;28;21221;-91
2021/06/14 08:34:55;;;;;;;5.10;2.53;;;21.80;92.80;;;;;;5062633;28;20660;-91
2021/06/14 08:37:24;;;;;;;4.07;3.53;;;21.90;93.00;;;;;;5062493;28;20643;-91
2021/06/14 08:39:51;;;;;;;3.33;2.50;;;22.00;92.70;;;;;;5061057;28;20617;-91
2021/06/14 08:42:17;;;;;;;4.10;3.03;;;21.80;91.40;;;;;;5042704;28;21036;-91
2021/06/14 08:44:45;;;;;;;4.60;3.30;;;21.80;92.70;;;;;;5063241;28;20826;-91
2021/06/14 08:47:13;;;;;;;3.37;2.57;;;21.90;92.10;;;;;;5061746;28;20639;-90
2021/06/14 08:49:43;;;;;;;4.43;2.50;;;22.20;93.30;;;;;;5058264;28;20690;-92
2021/06/14 08:52:12;;;;;;;4.47;2.63;;;22.30;91.70;;;;;;5056995;28;20610;-90
2021/06/14 08:54:43;;;;;;;2.63;2.43;;;22.50;92.10;;;;;;5062551;28;20630;-90
2021/06/14 08:57:11;;;;;;;4.17;2.57;;;22.50;90.80;;;;;;5059422;28;21557;-90
2021/06/14 08:59:38;;;;;;;3.80;2.50;;;22.50;90.80;;;;;;5060623;28;20988;-90
2021/06/14 09:02:06;;;;;;;4.50;2.50;;;22.50;91.80;;;;;;5063130;28;20640;-90
2021/06/14 09:04:33;;;;;;;5.50;2.30;;;22.80;91.30;;;;;;5064148;28;20656;-91
2021/06/14 09:07:00;;;;;;;2.87;2.40;;;22.80;90.70;;;;;;5061505;28;21010;-91
2021/06/14 09:09:30;;;;;;;4.60;2.77;;;22.70;88.30;;;;;;5061122;28;20656;-91
2021/06/14 09:12:01;;;;;;;4.30;3.10;;;23.10;91.10;;;;;;5063880;28;20659;-90
2021/06/14 09:14:32;;;;;;;7.00;3.20;;;23.10;90.60;;;;;;5061250;28;21307;-91
2021/06/14 09:17:03;;;;;;;2.50;2.23;;;23.20;90.70;;;;;;5060904;28;20652;-91
2021/06/14 09:19:31;;;;;;;3.20;2.00;;;23.40;89.90;;;;;;5061886;28;20625;-91
2021/06/14 09:22:11;;;;;;;3.90;2.73;;;23.60;89.00;;;;;;5059777;28;20629;-92
2021/06/14 09:24:37;;;;;;;2.50;2.30;;;24.00;90.30;;;;;;5060413;28;20737;-91
2021/06/14 09:27:06;;;;;;;3.10;2.73;;;23.80;87.10;;;;;;5062115;28;20629;-90
2021/06/14 09:29:33;;;;;;;3.50;2.60;;;23.80;88.20;;;;;;5060084;28;20649;-92
2021/06/14 09:32:02;;;;;;;3.07;2.77;;;23.90;88.10;;;;;;5058964;28;21072;-91
2021/06/14 09:34:34;;;;;;;2.90;2.37;;;23.90;86.30;;;;;;5061288;28;20656;-90
2021/06/14 09:37:04;;;;;;;4.50;3.20;;;23.70;89.50;;;;;;5058874;28;21010;-91
2021/06/14 09:39:41;;;;;;;5.20;4.00;;;23.70;86.30;;;;;;5058192;28;21104;-91
2021/06/14 09:42:18;;;;;;;3.97;3.67;;;23.80;85.60;;;;;;5059977;28;20629;-90
2021/06/14 09:44:46;;;;;;;4.70;2.10;;;23.80;86.80;;;;;;5058093;28;21093;-90
2021/06/14 09:47:14;;;;;;;5.53;2.70;;;23.80;85.50;;;;;;5056615;28;20977;-90
2021/06/14 09:49:55;;;;;;;6.90;2.00;;;23.80;85.80;;;;;;5068326;28;20664;-90
2021/06/14 09:52:24;;;;;;;3.10;2.57;;;23.80;84.70;;;;;;5066714;28;20626;-90
2021/06/14 09:54:51;;;;;;;2.77;1.50;;;24.10;83.70;;;;;;5060899;28;20645;-90
2021/06/14 09:57:30;;;;;;;3.17;2.20;;;24.10;83.70;;;;;;5061978;28;20667;-90
2021/06/14 10:00:07;;;;;;;3.73;2.50;;;24.50;80.80;;;;;;5057577;28;20630;-89
2021/06/14 10:02:35;;;;;;;5.13;3.13;;;24.80;80.00;;;;;;5066321;28;20621;-89
2021/06/14 10:05:02;;;;;;;3.33;2.37;;;25.00;80.60;;;;;;5064353;28;20663;-89
2021/06/14 10:07:29;;;;;;;2.80;2.40;;;25.00;80.00;;;;;;5064886;28;20988;-89
2021/06/14 10:09:59;;;;;;;5.40;2.30;;;24.70;79.20;;;;;;5060669;28;20760;-90
2021/06/14 10:12:28;;;;;;;3.27;2.33;;;24.90;78.80;;;;;;5062444;28;20638;-90
2021/06/14 10:14:58;;;;;;;4.53;3.00;;;25.10;78.00;;;;;;5059528;28;20739;-90
2021/06/14 10:17:36;;;;;;;4.40;2.33;;;25.10;78.70;;;;;;5058654;28;20633;-88
2021/06/14 10:20:25;;;;;;;3.83;2.33;;;25.10;76.60;;;;;;5061124;28;20628;-88
2021/06/14 10:22:54;;;;;;;3.13;2.20;;;25.40;74.40;;;;;;5053883;28;20672;-88
2021/06/14 10:25:22;;;;;;;3.23;2.43;;;24.90;71.70;;;;;;5061165;28;20662;-88
2021/06/14 10:27:51;;;;;;;20.13;2.67;;;25.30;76.40;;;;;;5061240;28;21176;-89
2021/06/14 10:30:21;;;;;;;2.23;1.70;;;25.70;72.60;;;;;;5064632;28;20664;-89
2021/06/14 10:32:48;;;;;;;2.13;1.93;;;25.60;71.20;;;;;;5063349;28;21202;-89
2021/06/14 10:35:17;;;;;;;5.07;2.63;;;25.50;74.00;;;;;;5061805;28;20680;-91
2021/06/14 10:37:45;;;;;;;3.13;2.50;;;25.60;73.90;;;;;;5065211;28;20640;-91
2021/06/14 10:40:15;;;;;;;1.97;1.80;;;26.00;73.00;;;;;;5069246;28;20959;-92
2021/06/14 10:42:46;;;;;;;2.47;2.27;;;26.20;68.70;;;;;;5063983;28;21175;-88
2021/06/14 10:45:18;;;;;;;2.60;1.93;;;26.20;70.40;;;;;;5064756;28;20739;-90
2021/06/14 10:47:47;;;;;;;3.63;2.40;;;26.50;66.90;;;;;;5061879;28;20643;-90
2021/06/14 10:50:16;;;;;;;2.60;1.90;;;26.50;67.10;;;;;;5045441;28;20652;-91
2021/06/14 10:52:45;;;;;;;5.63;2.17;;;26.60;67.10;;;;;;5065991;28;20648;-91
2021/06/14 10:55:14;;;;;;;2.07;1.87;;;26.80;67.70;;;;;;5062858;28;20654;-91
2021/06/14 10:57:43;;;;;;;4.27;2.30;;;26.50;64.80;;;;;;5063062;28;21553;-91
2021/06/14 11:00:26;;;;;;;3.00;2.40;;;26.80;66.20;;;;;;5073047;28;20620;-92
2021/06/14 11:02:56;;;;;;;4.80;2.90;;;27.10;64.40;;;;;;5065282;28;20643;-92
2021/06/14 11:05:35;;;;;;;3.10;2.20;;;26.90;63.20;;;;;;5065666;28;21015;-91
2021/06/14 11:08:12;;;;;;;3.03;2.50;;;26.90;66.00;;;;;;5063068;28;20993;-89
2021/06/14 11:10:40;;;;;;;5.00;2.30;;;27.00;64.70;;;;;;5066402;28;20656;-90
2021/06/14 11:13:08;;;;;;;3.57;2.43;;;27.40;64.00;;;;;;5063246;28;20625;-90
2021/06/14 11:15:37;;;;;;;2.93;2.20;;;27.60;62.50;;;;;;5064329;28;20645;-90
2021/06/14 11:18:08;;;;;;;2.20;2.00;;;27.60;65.00;;;;;;5067282;28;20631;-92
2021/06/14 11:20:37;;;;;;;2.70;2.30;;;27.90;59.20;;;;;;5062064;28;20624;-93
2021/06/14 11:23:05;;;;;;;5.40;2.80;;;28.20;59.30;;;;;;5062984;28;20633;-92
2021/06/14 11:25:41;;;;;;;4.70;2.30;;;28.10;63.00;;;;;;5070455;28;20655;-92
2021/06/14 11:28:10;;;;;;;3.47;2.57;;;28.20;63.60;;;;;;5068218;28;20632;-92
2021/06/14 11:30:41;;;;;;;4.43;2.73;;;28.30;59.30;;;;;;5050494;28;20641;-92
2021/06/14 11:33:10;;;;;;;3.10;2.30;;;28.30;59.10;;;;;;5065345;28;20682;-92
2021/06/14 11:35:37;;;;;;;2.03;1.90;;;28.30;61.80;;;;;;5063761;28;21029;-92
2021/06/14 11:38:17;;;;;;;4.90;2.30;;;28.60;60.70;;;;;;5062379;28;21199;-92
2021/06/14 11:40:51;;;;;;;3.27;2.47;;;28.90;60.60;;;;;;5063262;28;20613;-92
2021/06/14 11:43:17;;;;;;;6.57;2.50;;;28.90;57.90;;;;;;5055167;28;20583;-92
2021/06/14 11:45:48;;;;;;;2.40;2.20;;;28.90;54.90;;;;;;5073639;28;20644;-90
2021/06/14 11:48:24;;;;;;;2.83;2.37;;;29.20;55.50;;;;;;5061135;28;20633;-91
2021/06/14 11:51:13;;;;;;;5.20;2.40;;;29.20;56.10;;;;;;5061236;28;21290;-91
2021/06/14 11:56:29;;;;;;;3.77;2.60;;;29.60;54.70;;;;;;5082643;28;20609;-90
2021/06/14 11:58:58;;;;;;;2.90;2.23;;;29.80;53.30;;;;;;5075955;28;20991;-89
2021/06/14 12:01:26;;;;;;;3.00;2.50;;;29.80;53.50;;;;;;5066609;28;20648;-91
2021/06/14 12:03:56;;;;;;;2.53;2.33;;;29.80;53.40;;;;;;5063382;28;20664;-90
2021/06/14 12:06:23;;;;;;;2.57;2.37;;;29.60;53.50;;;;;;5062452;28;21421;-90
2021/06/14 12:08:50;;;;;;;4.93;1.97;;;29.60;55.90;;;;;;5065583;28;20624;-89
2021/06/14 12:11:17;;;;;;;2.83;2.00;;;29.50;54.00;;;;;;5065044;28;20670;-90
2021/06/14 12:13:44;;;;;;;2.70;2.27;;;29.80;53.40;;;;;;5066464;28;20652;-91
2021/06/14 12:16:15;;;;;;;3.50;2.00;;;29.90;55.20;;;;;;5062154;28;20959;-92
2021/06/14 12:18:43;;;;;;;3.73;2.47;;;30.60;51.60;;;;;;5065677;28;20633;-90
2021/06/14 12:21:10;;;;;;;2.20;2.00;;;31.00;51.50;;;;;;5061453;28;20616;-91
2021/06/14 12:23:40;;;;;;;7.13;3.23;;;31.40;50.60;;;;;;5064444;28;20609;-91
2021/06/14 12:26:10;;;;;;;4.17;2.07;;;31.60;49.80;;;;;;5064799;28;20723;-91
2021/06/14 12:28:38;;;;;;;2.47;1.80;;;31.30;49.60;;;;;;5061261;28;20616;-91
2021/06/14 12:31:08;;;;;;;3.57;1.93;;;31.80;48.80;;;;;;5060274;28;20628;-91
2021/06/14 12:33:36;;;;;;;3.50;1.97;;;31.70;49.00;;;;;;5062365;28;20621;-90
2021/06/14 12:36:06;;;;;;;3.13;1.77;;;31.30;50.20;;;;;;5062023;28;20641;-90
2021/06/14 12:38:33;;;;;;;3.33;1.93;;;31.40;48.90;;;;;;5062164;28;20635;-90
2021/06/14 12:41:01;;;;;;;3.30;2.40;;;32.00;49.00;;;;;;5057287;28;20998;-91
2021/06/14 12:43:31;;;;;;;2.60;2.10;;;31.50;47.20;;;;;;5062566;28;20743;-90
2021/06/14 12:45:58;;;;;;;2.23;1.87;;;31.80;48.20;;;;;;5062494;28;20640;-90
2021/06/14 12:48:26;;;;;;;2.10;1.90;;;31.60;47.80;;;;;;5062626;28;20631;-91
2021/06/14 12:50:55;;;;;;;4.60;1.90;;;31.50;47.70;;;;;;5057932;28;20659;-91
2021/06/14 12:53:25;;;;;;;4.23;2.07;;;32.10;46.30;;;;;;5057974;28;20651;-90
2021/06/14 12:55:54;;;;;;;2.70;2.40;;;31.80;47.70;;;;;;5060437;28;21094;-91
2021/06/14 12:58:23;;;;;;;2.87;1.90;;;31.90;48.50;;;;;;5062655;28;20624;-91